sensor_id;sensor_type;location;lat;lon;timestamp;pressure;altitude;pressure_sealevel;temperature;humidity
42633;BME280;28261;53.304;-6.284;2023-02-23T00:00:31;101797.59;;;4.53;84.17
42633;BME280;28261;53.304;-6.284;2023-02-23T00:02:36;101800.28;;;4.52;83.72
42633;BME280;28261;53.304;-6.284;2023-02-23T00:04:42;101800.31;;;4.50;83.65
42633;BME280;28261;53.304;-6.284;2023-02-23T00:06:46;101807.34;;;4.48;83.97
42633;BME280;28261;53.304;-6.284;2023-02-23T00:08:49;101810.91;;;4.47;84.13
42633;BME280;28261;53.304;-6.284;2023-02-23T00:10:54;101809.16;;;4.46;83.81
42633;BME280;28261;53.304;-6.284;2023-02-23T00:13:01;101823.19;;;4.45;83.86
42633;BME280;28261;53.304;-6.284;2023-02-23T00:15:07;101818.88;;;4.43;83.99
42633;BME280;28261;53.304;-6.284;2023-02-23T00:17:10;101814.53;;;4.42;83.81
42633;BME280;28261;53.304;-6.284;2023-02-23T00:19:16;101818.94;;;4.39;84.52
42633;BME280;28261;53.304;-6.284;2023-02-23T00:21:21;101821.63;;;4.38;84.12
42633;BME280;28261;53.304;-6.284;2023-02-23T00:23:25;101824.28;;;4.36;84.28
42633;BME280;28261;53.304;-6.284;2023-02-23T00:25:29;101832.19;;;4.35;83.96
42633;BME280;28261;53.304;-6.284;2023-02-23T00:27:33;101825.25;;;4.32;84.26
42633;BME280;28261;53.304;-6.284;2023-02-23T00:29:39;101830.59;;;4.29;84.27
42633;BME280;28261;53.304;-6.284;2023-02-23T00:31:42;101828.88;;;4.27;84.31
42633;BME280;28261;53.304;-6.284;2023-02-23T00:33:47;101836.78;;;4.25;84.15
42633;BME280;28261;53.304;-6.284;2023-02-23T00:35:52;101838.59;;;4.23;84.44
42633;BME280;28261;53.304;-6.284;2023-02-23T00:37:56;101840.34;;;4.22;84.56
42633;BME280;28261;53.304;-6.284;2023-02-23T00:40:00;101846.50;;;4.21;84.76
42633;BME280;28261;53.304;-6.284;2023-02-23T00:42:05;101847.38;;;4.20;84.97
42633;BME280;28261;53.304;-6.284;2023-02-23T00:44:08;101851.81;;;4.18;84.90
42633;BME280;28261;53.304;-6.284;2023-02-23T00:46:15;101851.81;;;4.18;85.29
42633;BME280;28261;53.304;-6.284;2023-02-23T00:48:19;101851.81;;;4.17;85.10
42633;BME280;28261;53.304;-6.284;2023-02-23T00:50:22;101862.31;;;4.18;85.19
42633;BME280;28261;53.304;-6.284;2023-02-23T00:52:26;101858.81;;;4.18;85.37
42633;BME280;28261;53.304;-6.284;2023-02-23T00:54:30;101856.22;;;4.16;85.54
42633;BME280;28261;53.304;-6.284;2023-02-23T00:56:33;101856.25;;;4.15;85.89
42633;BME280;28261;53.304;-6.284;2023-02-23T00:58:37;101858.88;;;4.15;85.53
42633;BME280;28261;53.304;-6.284;2023-02-23T01:00:40;101852.75;;;4.16;85.75
42633;BME280;28261;53.304;-6.284;2023-02-23T01:02:46;101858.88;;;4.15;85.60
42633;BME280;28261;53.304;-6.284;2023-02-23T01:04:50;101860.66;;;4.14;85.57
42633;BME280;28261;53.304;-6.284;2023-02-23T01:06:54;101861.56;;;4.13;85.67
42633;BME280;28261;53.304;-6.284;2023-02-23T01:08:57;101860.66;;;4.13;85.93
42633;BME280;28261;53.304;-6.284;2023-02-23T01:11:05;101873.78;;;4.13;85.57
42633;BME280;28261;53.304;-6.284;2023-02-23T01:13:10;101878.16;;;4.14;85.67
42633;BME280;28261;53.304;-6.284;2023-02-23T01:15:14;101880.78;;;4.14;86.04
42633;BME280;28261;53.304;-6.284;2023-02-23T01:17:17;101881.66;;;4.14;85.64
42633;BME280;28261;53.304;-6.284;2023-02-23T01:19:22;101891.22;;;4.15;85.28
42633;BME280;28261;53.304;-6.284;2023-02-23T01:21:26;101882.50;;;4.15;85.04
42633;BME280;28261;53.304;-6.284;2023-02-23T01:23:30;101883.41;;;4.14;84.89
42633;BME280;28261;53.304;-6.284;2023-02-23T01:25:34;101884.28;;;4.13;84.90
42633;BME280;28261;53.304;-6.284;2023-02-23T01:27:38;101879.91;;;4.13;85.10
42633;BME280;28261;53.304;-6.284;2023-02-23T01:29:43;101886.03;;;4.14;84.47
42633;BME280;28261;53.304;-6.284;2023-02-23T01:31:48;101884.28;;;4.13;84.15
42633;BME280;28261;53.304;-6.284;2023-02-23T01:33:53;101873.81;;;4.11;84.62
42633;BME280;28261;53.304;-6.284;2023-02-23T01:35:58;101882.63;;;4.09;84.10
42633;BME280;28261;53.304;-6.284;2023-02-23T01:38:02;101888.03;;;4.02;84.17
42633;BME280;28261;53.304;-6.284;2023-02-23T01:40:07;101882.84;;;3.99;84.21
42633;BME280;28261;53.304;-6.284;2023-02-23T01:42:15;101881.16;;;3.97;84.17
42633;BME280;28261;53.304;-6.284;2023-02-23T01:45:11;101895.13;;;3.97;84.35
42633;BME280;28261;53.304;-6.284;2023-02-23T01:47:19;101894.28;;;3.95;83.66
42633;BME280;28261;53.304;-6.284;2023-02-23T01:49:25;101903.06;;;3.94;83.95
42633;BME280;28261;53.304;-6.284;2023-02-23T01:51:36;101903.06;;;3.94;83.72
42633;BME280;28261;53.304;-6.284;2023-02-23T01:53:48;101900.47;;;3.93;83.41
42633;BME280;28261;53.304;-6.284;2023-02-23T01:55:57;101917.94;;;3.92;83.49
42633;BME280;28261;53.304;-6.284;2023-02-23T01:58:07;101911.00;;;3.89;83.57
42633;BME280;28261;53.304;-6.284;2023-02-23T02:00:16;101924.16;;;3.88;83.31
42633;BME280;28261;53.304;-6.284;2023-02-23T02:02:25;101920.72;;;3.86;83.51
42633;BME280;28261;53.304;-6.284;2023-02-23T02:04:36;101924.25;;;3.83;83.78
42633;BME280;28261;53.304;-6.284;2023-02-23T02:06:48;101922.56;;;3.81;83.68
42633;BME280;28261;53.304;-6.284;2023-02-23T02:08:58;101928.69;;;3.80;83.75
42633;BME280;28261;53.304;-6.284;2023-02-23T02:11:01;101924.38;;;3.76;84.23
42633;BME280;28261;53.304;-6.284;2023-02-23T02:13:18;101924.47;;;3.72;84.32
42633;BME280;28261;53.304;-6.284;2023-02-23T02:15:31;101928.00;;;3.70;84.55
42633;BME280;28261;53.304;-6.284;2023-02-23T02:17:41;101921.09;;;3.66;84.58
42633;BME280;28261;53.304;-6.284;2023-02-23T02:23:09;101928.16;;;3.61;84.22
42633;BME280;28261;53.304;-6.284;2023-02-23T02:25:27;101927.31;;;3.60;84.45
42633;BME280;28261;53.304;-6.284;2023-02-23T02:27:46;101930.78;;;3.61;84.48
42633;BME280;28261;53.304;-6.284;2023-02-23T02:30:25;101935.19;;;3.60;84.51
42633;BME280;28261;53.304;-6.284;2023-02-23T02:35:23;101937.84;;;3.59;83.87
42633;BME280;28261;53.304;-6.284;2023-02-23T02:37:45;101934.34;;;3.56;84.17
42633;BME280;28261;53.304;-6.284;2023-02-23T02:39:56;101940.53;;;3.55;84.23
42633;BME280;28261;53.304;-6.284;2023-02-23T02:42:21;101938.81;;;3.53;84.16
42633;BME280;28261;53.304;-6.284;2023-02-23T02:44:34;101937.94;;;3.52;84.41
42633;BME280;28261;53.304;-6.284;2023-02-23T02:46:47;101946.72;;;3.50;84.30
42633;BME280;28261;53.304;-6.284;2023-02-23T02:48:58;101951.09;;;3.49;84.57
42633;BME280;28261;53.304;-6.284;2023-02-23T02:51:06;101947.66;;;3.47;84.44
42633;BME280;28261;53.304;-6.284;2023-02-23T02:53:25;101949.47;;;3.44;84.84
42633;BME280;28261;53.304;-6.284;2023-02-23T02:55:33;101946.91;;;3.41;84.68
42633;BME280;28261;53.304;-6.284;2023-02-23T02:57:40;101944.31;;;3.39;85.11
42633;BME280;28261;53.304;-6.284;2023-02-23T02:59:46;101941.69;;;3.37;85.00
42633;BME280;28261;53.304;-6.284;2023-02-23T03:02:14;101944.34;;;3.36;85.08
42633;BME280;28261;53.304;-6.284;2023-02-23T03:04:36;101948.78;;;3.32;85.03
42633;BME280;28261;53.304;-6.284;2023-02-23T03:06:58;101952.28;;;3.31;85.26
42633;BME280;28261;53.304;-6.284;2023-02-23T03:09:33;101945.34;;;3.29;85.38
42633;BME280;28261;53.304;-6.284;2023-02-23T03:12:05;101957.63;;;3.25;85.67
42633;BME280;28261;53.304;-6.284;2023-02-23T03:14:32;101954.19;;;3.23;85.49
42633;BME280;28261;53.304;-6.284;2023-02-23T03:17:03;101956.81;;;3.21;85.21
42633;BME280;28261;53.304;-6.284;2023-02-23T03:19:29;101958.59;;;3.19;85.52
42633;BME280;28261;53.304;-6.284;2023-02-23T03:21:55;101958.63;;;3.18;85.62
42633;BME280;28261;53.304;-6.284;2023-02-23T03:24:23;101956.06;;;3.15;85.49
42633;BME280;28261;53.304;-6.284;2023-02-23T03:26:57;101962.16;;;3.15;85.67
42633;BME280;28261;53.304;-6.284;2023-02-23T03:29:28;101956.94;;;3.14;85.56
42633;BME280;28261;53.304;-6.284;2023-02-23T03:31:54;101960.44;;;3.13;85.91
42633;BME280;28261;53.304;-6.284;2023-02-23T03:34:23;101957.81;;;3.13;85.78
42633;BME280;28261;53.304;-6.284;2023-02-23T03:36:51;101963.09;;;3.11;85.78
42633;BME280;28261;53.304;-6.284;2023-02-23T03:39:21;101957.88;;;3.10;85.96
42633;BME280;28261;53.304;-6.284;2023-02-23T03:41:44;101957.03;;;3.09;85.60
42633;BME280;28261;53.304;-6.284;2023-02-23T03:44:10;101965.78;;;3.08;85.47
42633;BME280;28261;53.304;-6.284;2023-02-23T03:46:34;101964.94;;;3.04;85.64
42633;BME280;28261;53.304;-6.284;2023-02-23T03:48:56;101968.47;;;3.03;85.88
42633;BME280;28261;53.304;-6.284;2023-02-23T03:51:21;101974.63;;;3.01;86.04
42633;BME280;28261;53.304;-6.284;2023-02-23T03:53:47;101972.03;;;2.99;86.07
42633;BME280;28261;53.304;-6.284;2023-02-23T03:56:10;101975.53;;;2.98;86.19
42633;BME280;28261;53.304;-6.284;2023-02-23T03:58:37;101979.03;;;2.97;86.28
42633;BME280;28261;53.304;-6.284;2023-02-23T04:01:03;101983.38;;;2.98;86.08
42633;BME280;28261;53.304;-6.284;2023-02-23T04:03:26;101974.69;;;2.96;86.22
42633;BME280;28261;53.304;-6.284;2023-02-23T04:05:52;101987.78;;;2.96;86.17
42633;BME280;28261;53.304;-6.284;2023-02-23T04:08:17;101986.03;;;2.95;86.34
42633;BME280;28261;53.304;-6.284;2023-02-23T04:10:45;101987.78;;;2.96;86.34
42633;BME280;28261;53.304;-6.284;2023-02-23T04:13:12;101982.53;;;2.96;86.43
42633;BME280;28261;53.304;-6.284;2023-02-23T04:15:22;101994.81;;;2.94;86.32
42633;BME280;28261;53.304;-6.284;2023-02-23T04:17:28;101998.31;;;2.93;86.42
42633;BME280;28261;53.304;-6.284;2023-02-23T04:19:33;101995.66;;;2.95;86.25
42633;BME280;28261;53.304;-6.284;2023-02-23T04:21:36;101999.16;;;2.94;86.27
42633;BME280;28261;53.304;-6.284;2023-02-23T04:23:40;102005.28;;;2.94;86.37
42633;BME280;28261;53.304;-6.284;2023-02-23T04:25:44;102007.00;;;2.95;86.56
42633;BME280;28261;53.304;-6.284;2023-02-23T04:27:49;101999.13;;;2.95;86.21
42633;BME280;28261;53.304;-6.284;2023-02-23T04:29:52;102004.41;;;2.94;86.53
42633;BME280;28261;53.304;-6.284;2023-02-23T04:31:56;102003.53;;;2.93;86.37
42633;BME280;28261;53.304;-6.284;2023-02-23T04:34:00;102009.66;;;2.92;86.20
42633;BME280;28261;53.304;-6.284;2023-02-23T04:36:06;102012.31;;;2.91;86.30
42633;BME280;28261;53.304;-6.284;2023-02-23T04:38:10;102009.72;;;2.89;86.34
42633;BME280;28261;53.304;-6.284;2023-02-23T04:40:13;102006.25;;;2.88;86.42
42633;BME280;28261;53.304;-6.284;2023-02-23T04:42:17;102002.72;;;2.88;86.44
42633;BME280;28261;53.304;-6.284;2023-02-23T04:44:20;102011.47;;;2.88;86.30
42633;BME280;28261;53.304;-6.284;2023-02-23T04:46:24;102011.47;;;2.87;86.34
42633;BME280;28261;53.304;-6.284;2023-02-23T04:48:27;102009.78;;;2.84;86.16
42633;BME280;28261;53.304;-6.284;2023-02-23T04:50:32;102008.91;;;2.84;85.99
42633;BME280;28261;53.304;-6.284;2023-02-23T04:52:35;102020.25;;;2.83;86.44
42633;BME280;28261;53.304;-6.284;2023-02-23T04:54:40;102018.56;;;2.82;86.15
42633;BME280;28261;53.304;-6.284;2023-02-23T04:56:44;102015.06;;;2.81;86.09
42633;BME280;28261;53.304;-6.284;2023-02-23T04:58:47;102014.19;;;2.81;86.30
42633;BME280;28261;53.304;-6.284;2023-02-23T05:00:50;102011.56;;;2.82;86.29
42633;BME280;28261;53.304;-6.284;2023-02-23T05:02:54;102029.88;;;2.82;86.23
42633;BME280;28261;53.304;-6.284;2023-02-23T05:04:57;102026.41;;;2.82;86.06
42633;BME280;28261;53.304;-6.284;2023-02-23T05:07:02;102029.03;;;2.82;86.20
42633;BME280;28261;53.304;-6.284;2023-02-23T05:09:05;102021.19;;;2.82;86.07
42633;BME280;28261;53.304;-6.284;2023-02-23T05:11:09;102016.81;;;2.81;86.13
42633;BME280;28261;53.304;-6.284;2023-02-23T05:13:12;102024.66;;;2.81;85.94
42633;BME280;28261;53.304;-6.284;2023-02-23T05:15:16;102017.69;;;2.80;86.21
42633;BME280;28261;53.304;-6.284;2023-02-23T05:17:19;102015.16;;;2.75;86.22
42633;BME280;28261;53.304;-6.284;2023-02-23T05:19:23;102016.06;;;2.73;86.32
42633;BME280;28261;53.304;-6.284;2023-02-23T05:21:26;102018.69;;;2.71;86.32
42633;BME280;28261;53.304;-6.284;2023-02-23T05:23:31;102010.00;;;2.67;86.55
42633;BME280;28261;53.304;-6.284;2023-02-23T05:25:36;102005.66;;;2.66;86.48
42633;BME280;28261;53.304;-6.284;2023-02-23T05:27:40;101996.09;;;2.64;86.32
42633;BME280;28261;53.304;-6.284;2023-02-23T05:29:43;101989.16;;;2.61;86.55
42633;BME280;28261;53.304;-6.284;2023-02-23T05:31:47;101996.19;;;2.56;86.76
42633;BME280;28261;53.304;-6.284;2023-02-23T05:33:50;101993.63;;;2.53;86.81
42633;BME280;28261;53.304;-6.284;2023-02-23T05:35:54;101986.69;;;2.49;86.90
42633;BME280;28261;53.304;-6.284;2023-02-23T05:37:58;101984.13;;;2.44;87.02
42633;BME280;28261;53.304;-6.284;2023-02-23T05:40:04;101999.03;;;2.41;87.09
42633;BME280;28261;53.304;-6.284;2023-02-23T05:42:08;101998.22;;;2.34;86.98
42633;BME280;28261;53.304;-6.284;2023-02-23T05:44:12;102000.94;;;2.26;87.37
42633;BME280;28261;53.304;-6.284;2023-02-23T05:46:17;101994.88;;;2.21;88.06
42633;BME280;28261;53.304;-6.284;2023-02-23T05:48:22;102004.53;;;2.16;87.77
42633;BME280;28261;53.304;-6.284;2023-02-23T05:50:26;102006.31;;;2.14;87.84
42633;BME280;28261;53.304;-6.284;2023-02-23T05:52:29;102014.19;;;2.12;87.98
42633;BME280;28261;53.304;-6.284;2023-02-23T05:54:33;102016.81;;;2.08;88.08
42633;BME280;28261;53.304;-6.284;2023-02-23T05:56:38;102016.03;;;2.02;88.75
42633;BME280;28261;53.304;-6.284;2023-02-23T05:58:41;102012.53;;;2.00;88.40
42633;BME280;28261;53.304;-6.284;2023-02-23T06:00:45;102014.31;;;1.98;88.84
42633;BME280;28261;53.304;-6.284;2023-02-23T06:02:49;102015.22;;;1.96;89.06
42633;BME280;28261;53.304;-6.284;2023-02-23T06:04:54;102008.28;;;1.93;89.20
42633;BME280;28261;53.304;-6.284;2023-02-23T06:06:57;102006.53;;;1.92;89.26
42633;BME280;28261;53.304;-6.284;2023-02-23T06:09:01;102004.78;;;1.91;89.46
42633;BME280;28261;53.304;-6.284;2023-02-23T06:11:06;102007.41;;;1.90;89.06
42633;BME280;28261;53.304;-6.284;2023-02-23T06:13:11;102001.34;;;1.88;89.18
42633;BME280;28261;53.304;-6.284;2023-02-23T06:15:16;101996.13;;;1.88;89.13
42633;BME280;28261;53.304;-6.284;2023-02-23T06:17:19;101994.38;;;1.88;89.48
42633;BME280;28261;53.304;-6.284;2023-02-23T06:19:23;101996.09;;;1.89;89.59
42633;BME280;28261;53.304;-6.284;2023-02-23T06:21:27;101997.84;;;1.90;89.06
42633;BME280;28261;53.304;-6.284;2023-02-23T06:23:32;102001.31;;;1.92;89.14
42633;BME280;28261;53.304;-6.284;2023-02-23T06:25:35;101999.53;;;1.93;89.39
42633;BME280;28261;53.304;-6.284;2023-02-23T06:27:39;102003.03;;;1.93;89.27
42633;BME280;28261;53.304;-6.284;2023-02-23T06:29:44;102003.91;;;1.94;89.19
42633;BME280;28261;53.304;-6.284;2023-02-23T06:31:48;102010.00;;;1.94;89.97
42633;BME280;28261;53.304;-6.284;2023-02-23T06:33:52;102004.78;;;1.94;89.35
42633;BME280;28261;53.304;-6.284;2023-02-23T06:35:56;101993.44;;;1.92;89.34
42633;BME280;28261;53.304;-6.284;2023-02-23T06:38:00;101991.72;;;1.90;89.27
42633;BME280;28261;53.304;-6.284;2023-02-23T06:40:06;101995.22;;;1.89;89.40
42633;BME280;28261;53.304;-6.284;2023-02-23T06:42:09;101996.09;;;1.89;89.39
42633;BME280;28261;53.304;-6.284;2023-02-23T06:44:13;101999.63;;;1.85;89.43
42633;BME280;28261;53.304;-6.284;2023-02-23T06:46:18;102004.91;;;1.82;89.85
42633;BME280;28261;53.304;-6.284;2023-02-23T06:48:22;102006.69;;;1.77;90.03
42633;BME280;28261;53.304;-6.284;2023-02-23T06:50:26;102020.69;;;1.73;90.25
42633;BME280;28261;53.304;-6.284;2023-02-23T06:52:29;102018.94;;;1.72;89.80
42633;BME280;28261;53.304;-6.284;2023-02-23T06:54:33;102019.81;;;1.69;90.10
42633;BME280;28261;53.304;-6.284;2023-02-23T06:56:38;102029.44;;;1.68;90.64
42633;BME280;28261;53.304;-6.284;2023-02-23T06:58:42;102031.19;;;1.65;90.30
42633;BME280;28261;53.304;-6.284;2023-02-23T07:00:46;102032.94;;;1.64;90.96
42633;BME280;28261;53.304;-6.284;2023-02-23T07:02:51;102031.16;;;1.66;90.54
42633;BME280;28261;53.304;-6.284;2023-02-23T07:04:54;102030.34;;;1.64;90.70
42633;BME280;28261;53.304;-6.284;2023-02-23T07:06:59;102029.47;;;1.65;90.83
42633;BME280;28261;53.304;-6.284;2023-02-23T07:09:02;102047.72;;;1.68;90.87
42633;BME280;28261;53.304;-6.284;2023-02-23T07:11:07;102045.06;;;1.72;90.93
42633;BME280;28261;53.304;-6.284;2023-02-23T07:13:11;102048.56;;;1.74;91.12
42633;BME280;28261;53.304;-6.284;2023-02-23T07:15:15;102054.59;;;1.79;91.16
42633;BME280;28261;53.304;-6.284;2023-02-23T07:17:21;102045.84;;;1.83;91.15
42633;BME280;28261;53.304;-6.284;2023-02-23T07:19:26;102045.84;;;1.86;91.07
42633;BME280;28261;53.304;-6.284;2023-02-23T07:21:30;102048.41;;;1.89;91.25
42633;BME280;28261;53.304;-6.284;2023-02-23T07:23:34;102050.13;;;1.93;90.86
42633;BME280;28261;53.304;-6.284;2023-02-23T07:25:38;102055.31;;;1.96;90.53
42633;BME280;28261;53.304;-6.284;2023-02-23T07:27:41;102057.91;;;1.98;90.83
42633;BME280;28261;53.304;-6.284;2023-02-23T07:29:46;102055.28;;;1.98;90.53
42633;BME280;28261;53.304;-6.284;2023-02-23T07:31:50;102063.19;;;1.93;90.36
42633;BME280;28261;53.304;-6.284;2023-02-23T07:33:54;102064.13;;;1.86;90.58
42633;BME280;28261;53.304;-6.284;2023-02-23T07:35:59;102071.97;;;1.84;91.56
42633;BME280;28261;53.304;-6.284;2023-02-23T07:38:03;102078.94;;;1.85;91.33
42633;BME280;28261;53.304;-6.284;2023-02-23T07:40:11;102078.06;;;1.88;91.22
42633;BME280;28261;53.304;-6.284;2023-02-23T07:42:16;102096.31;;;1.91;91.07
42633;BME280;28261;53.304;-6.284;2023-02-23T07:44:22;102090.19;;;1.95;90.89
42633;BME280;28261;53.304;-6.284;2023-02-23T07:46:26;102086.72;;;1.95;90.97
42633;BME280;28261;53.304;-6.284;2023-02-23T07:48:30;102095.41;;;1.98;91.02
42633;BME280;28261;53.304;-6.284;2023-02-23T07:50:34;102095.38;;;2.01;90.63
42633;BME280;28261;53.304;-6.284;2023-02-23T07:52:41;102095.34;;;2.05;90.47
42633;BME280;28261;53.304;-6.284;2023-02-23T07:54:45;102097.91;;;2.08;90.61
42633;BME280;28261;53.304;-6.284;2023-02-23T07:56:50;102102.22;;;2.12;90.50
42633;BME280;28261;53.304;-6.284;2023-02-23T07:58:54;102100.44;;;2.17;90.45
42633;BME280;28261;53.304;-6.284;2023-02-23T08:00:59;102104.78;;;2.19;90.41
42633;BME280;28261;53.304;-6.284;2023-02-23T08:03:03;102107.34;;;2.24;90.33
42633;BME280;28261;53.304;-6.284;2023-02-23T08:05:07;102117.75;;;2.32;90.20
42633;BME280;28261;53.304;-6.284;2023-02-23T08:07:11;102119.47;;;2.34;90.05
42633;BME280;28261;53.304;-6.284;2023-02-23T08:09:16;102113.34;;;2.37;90.09
42633;BME280;28261;53.304;-6.284;2023-02-23T08:11:20;102132.50;;;2.41;90.04
42633;BME280;28261;53.304;-6.284;2023-02-23T08:13:24;102135.09;;;2.42;89.95
42633;BME280;28261;53.304;-6.284;2023-02-23T08:15:27;102123.72;;;2.43;89.84
42633;BME280;28261;53.304;-6.284;2023-02-23T08:17:31;102125.44;;;2.46;89.96
42633;BME280;28261;53.304;-6.284;2023-02-23T08:19:35;102128.06;;;2.46;89.72
42633;BME280;28261;53.304;-6.284;2023-02-23T08:21:39;102123.69;;;2.48;89.90
42633;BME280;28261;53.304;-6.284;2023-02-23T08:23:44;102129.75;;;2.50;89.93
42633;BME280;28261;53.304;-6.284;2023-02-23T08:25:49;102123.63;;;2.52;89.68
42633;BME280;28261;53.304;-6.284;2023-02-23T08:27:53;102124.50;;;2.53;89.86
42633;BME280;28261;53.304;-6.284;2023-02-23T08:29:57;102139.31;;;2.57;89.79
42633;BME280;28261;53.304;-6.284;2023-02-23T08:32:02;102145.38;;;2.59;89.59
42633;BME280;28261;53.304;-6.284;2023-02-23T08:34:06;102147.97;;;2.61;89.71
42633;BME280;28261;53.304;-6.284;2023-02-23T08:36:10;102146.22;;;2.63;89.76
42633;BME280;28261;53.304;-6.284;2023-02-23T08:38:13;102133.97;;;2.65;89.64
42633;BME280;28261;53.304;-6.284;2023-02-23T08:40:17;102140.91;;;2.69;89.60
42633;BME280;28261;53.304;-6.284;2023-02-23T08:42:23;102145.25;;;2.71;89.60
42633;BME280;28261;53.304;-6.284;2023-02-23T08:44:27;102142.56;;;2.75;89.57
42633;BME280;28261;53.304;-6.284;2023-02-23T08:46:31;102138.19;;;2.78;89.57
42633;BME280;28261;53.304;-6.284;2023-02-23T08:48:35;102135.50;;;2.83;89.28
42633;BME280;28261;53.304;-6.284;2023-02-23T08:50:40;102140.69;;;2.87;89.47
42633;BME280;28261;53.304;-6.284;2023-02-23T08:52:43;102135.38;;;2.92;89.62
42633;BME280;28261;53.304;-6.284;2023-02-23T08:54:47;102141.41;;;3.00;89.52
42633;BME280;28261;53.304;-6.284;2023-02-23T08:56:54;102140.47;;;3.08;89.42
42633;BME280;28261;53.304;-6.284;2023-02-23T08:58:59;102140.31;;;3.17;89.04
42633;BME280;28261;53.304;-6.284;2023-02-23T09:01:03;102143.69;;;3.28;89.23
42633;BME280;28261;53.304;-6.284;2023-02-23T09:03:07;102139.09;;;3.43;89.06
42633;BME280;28261;53.304;-6.284;2023-02-23T09:05:11;102147.59;;;3.59;88.38
42633;BME280;28261;53.304;-6.284;2023-02-23T09:07:16;102142.97;;;3.76;88.50
42633;BME280;28261;53.304;-6.284;2023-02-23T09:09:20;102147.09;;;3.93;87.72
42633;BME280;28261;53.304;-6.284;2023-02-23T09:11:24;102146.75;;;4.11;87.58
42633;BME280;28261;53.304;-6.284;2023-02-23T09:13:27;102150.78;;;4.32;86.69
42633;BME280;28261;53.304;-6.284;2023-02-23T09:15:32;102145.19;;;4.51;85.68
42633;BME280;28261;53.304;-6.284;2023-02-23T09:17:36;102144.88;;;4.68;85.14
42633;BME280;28261;53.304;-6.284;2023-02-23T09:19:40;102146.28;;;4.84;84.29
42633;BME280;28261;53.304;-6.284;2023-02-23T09:21:43;102148.56;;;5.01;83.82
42633;BME280;28261;53.304;-6.284;2023-02-23T09:23:47;102149.19;;;5.14;82.59
42633;BME280;28261;53.304;-6.284;2023-02-23T09:25:53;102143.63;;;5.28;82.01
42633;BME280;28261;53.304;-6.284;2023-02-23T09:27:56;102142.38;;;5.45;82.19
42633;BME280;28261;53.304;-6.284;2023-02-23T09:30:00;102144.75;;;5.55;80.56
42633;BME280;28261;53.304;-6.284;2023-02-23T09:32:06;102141.88;;;5.66;80.68
42633;BME280;28261;53.304;-6.284;2023-02-23T09:34:10;102138.13;;;5.76;79.79
42633;BME280;28261;53.304;-6.284;2023-02-23T09:36:15;102141.47;;;5.83;79.34
42633;BME280;28261;53.304;-6.284;2023-02-23T09:38:20;102143.03;;;5.92;78.64
42633;BME280;28261;53.304;-6.284;2023-02-23T09:40:25;102142.00;;;5.99;78.52
42633;BME280;28261;53.304;-6.284;2023-02-23T09:42:36;102139.94;;;6.10;78.08
42633;BME280;28261;53.304;-6.284;2023-02-23T09:44:56;102141.63;;;6.13;77.08
42633;BME280;28261;53.304;-6.284;2023-02-23T09:47:24;102142.25;;;6.23;77.26
42633;BME280;28261;53.304;-6.284;2023-02-23T09:49:32;102140.28;;;6.31;76.52
42633;BME280;28261;53.304;-6.284;2023-02-23T09:51:39;102140.06;;;6.40;76.36
42633;BME280;28261;53.304;-6.284;2023-02-23T09:53:46;102135.44;;;6.49;75.58
42633;BME280;28261;53.304;-6.284;2023-02-23T09:55:53;102145.81;;;6.55;75.35
42633;BME280;28261;53.304;-6.284;2023-02-23T09:58:04;102146.53;;;6.62;74.95
42633;BME280;28261;53.304;-6.284;2023-02-23T10:00:21;102151.56;;;6.69;74.87
42633;BME280;28261;53.304;-6.284;2023-02-23T10:02:33;102145.28;;;6.73;74.62
42633;BME280;28261;53.304;-6.284;2023-02-23T10:04:43;102148.63;;;6.80;74.13
42633;BME280;28261;53.304;-6.284;2023-02-23T10:06:53;102140.56;;;6.86;73.60
42633;BME280;28261;53.304;-6.284;2023-02-23T10:09:03;102145.72;;;6.89;73.32
42633;BME280;28261;53.304;-6.284;2023-02-23T10:11:16;102142.19;;;6.90;72.76
42633;BME280;28261;53.304;-6.284;2023-02-23T10:13:29;102136.78;;;6.95;72.74
42633;BME280;28261;53.304;-6.284;2023-02-23T10:15:43;102139.16;;;7.04;72.49
42633;BME280;28261;53.304;-6.284;2023-02-23T10:17:56;102137.19;;;7.11;72.43
42633;BME280;28261;53.304;-6.284;2023-02-23T10:20:12;102134.31;;;7.19;71.92
42633;BME280;28261;53.304;-6.284;2023-02-23T10:22:19;102136.84;;;7.23;71.11
42633;BME280;28261;53.304;-6.284;2023-02-23T10:24:26;102139.22;;;7.31;71.60
42633;BME280;28261;53.304;-6.284;2023-02-23T10:26:38;102141.53;;;7.42;71.05
42633;BME280;28261;53.304;-6.284;2023-02-23T10:28:45;102136.78;;;7.53;71.07
42633;BME280;28261;53.304;-6.284;2023-02-23T10:30:49;102140.84;;;7.63;70.50
42633;BME280;28261;53.304;-6.284;2023-02-23T10:33:03;102137.06;;;7.72;71.31
42633;BME280;28261;53.304;-6.284;2023-02-23T10:35:10;102143.94;;;7.78;70.12
42633;BME280;28261;53.304;-6.284;2023-02-23T10:37:15;102137.47;;;7.87;70.60
42633;BME280;28261;53.304;-6.284;2023-02-23T10:39:20;102134.72;;;7.90;69.10
42633;BME280;28261;53.304;-6.284;2023-02-23T10:41:23;102136.41;;;7.92;69.62
42633;BME280;28261;53.304;-6.284;2023-02-23T10:43:27;102133.63;;;7.97;69.45
42633;BME280;28261;53.304;-6.284;2023-02-23T10:45:36;102129.03;;;8.02;69.07
42633;BME280;28261;53.304;-6.284;2023-02-23T10:47:41;102142.03;;;8.08;68.38
42633;BME280;28261;53.304;-6.284;2023-02-23T10:49:49;102133.88;;;8.16;68.36
42633;BME280;28261;53.304;-6.284;2023-02-23T10:51:53;102133.88;;;8.16;67.95
42633;BME280;28261;53.304;-6.284;2023-02-23T10:54:38;102136.38;;;8.19;68.09
42633;BME280;28261;53.304;-6.284;2023-02-23T10:56:46;102135.31;;;8.25;67.67
42633;BME280;28261;53.304;-6.284;2023-02-23T10:58:51;102145.06;;;8.23;67.00
42633;BME280;28261;53.304;-6.284;2023-02-23T11:00:57;102140.97;;;8.14;66.07
42633;BME280;28261;53.304;-6.284;2023-02-23T11:03:01;102143.78;;;8.09;65.96
42633;BME280;28261;53.304;-6.284;2023-02-23T11:05:34;102138.69;;;8.03;66.66
42633;BME280;28261;53.304;-6.284;2023-02-23T11:07:37;102137.72;;;8.06;67.05
42633;BME280;28261;53.304;-6.284;2023-02-23T11:09:41;102133.09;;;8.12;67.90
42633;BME280;28261;53.304;-6.284;2023-02-23T11:11:55;102139.16;;;8.14;67.76
42633;BME280;28261;53.304;-6.284;2023-02-23T11:14:15;102128.59;;;8.14;67.60
42633;BME280;28261;53.304;-6.284;2023-02-23T11:16:20;102127.81;;;8.12;67.19